sensor_id;sensor_type;location;lat;lon;timestamp;temperature;humidity
6752;DHT22;3413;47.680;9.166;2023-06-10T00:00:55;24.00;58.10
6752;DHT22;3413;47.680;9.166;2023-06-10T00:05:57;24.10;58.20
6752;DHT22;3413;47.680;9.166;2023-06-10T00:10:59;24.10;58.00
6752;DHT22;3413;47.680;9.166;2023-06-10T00:16:02;24.20;58.00
6752;DHT22;3413;47.680;9.166;2023-06-10T00:21:09;24.10;58.10
6752;DHT22;3413;47.680;9.166;2023-06-10T00:26:12;24.10;58.10
6752;DHT22;3413;47.680;9.166;2023-06-10T00:31:15;24.10;58.20
6752;DHT22;3413;47.680;9.166;2023-06-10T00:36:17;23.90;58.30
6752;DHT22;3413;47.680;9.166;2023-06-10T00:41:19;23.90;58.40
6752;DHT22;3413;47.680;9.166;2023-06-10T00:46:23;23.90;58.40
6752;DHT22;3413;47.680;9.166;2023-06-10T00:51:27;23.90;58.50
6752;DHT22;3413;47.680;9.166;2023-06-10T00:56:29;23.90;58.50
6752;DHT22;3413;47.680;9.166;2023-06-10T01:01:32;23.90;58.40
6752;DHT22;3413;47.680;9.166;2023-06-10T01:17:28;23.90;58.50
6752;DHT22;3413;47.680;9.166;2023-06-10T01:22:31;23.70;58.50
6752;DHT22;3413;47.680;9.166;2023-06-10T01:27:37;23.60;58.60
6752;DHT22;3413;47.680;9.166;2023-06-10T01:32:45;23.50;58.60
6752;DHT22;3413;47.680;9.166;2023-06-10T01:37:51;23.40;59.20
6752;DHT22;3413;47.680;9.166;2023-06-10T01:42:55;23.40;58.70
6752;DHT22;3413;47.680;9.166;2023-06-10T01:47:57;23.30;58.70
6752;DHT22;3413;47.680;9.166;2023-06-10T01:53:00;23.20;58.80
6752;DHT22;3413;47.680;9.166;2023-06-10T01:58:02;23.10;58.90
6752;DHT22;3413;47.680;9.166;2023-06-10T02:03:04;22.90;58.80
6752;DHT22;3413;47.680;9.166;2023-06-10T02:08:06;22.80;58.90
6752;DHT22;3413;47.680;9.166;2023-06-10T02:13:08;22.60;59.00
6752;DHT22;3413;47.680;9.166;2023-06-10T02:18:10;22.50;59.00
6752;DHT22;3413;47.680;9.166;2023-06-10T02:23:13;22.30;59.20
6752;DHT22;3413;47.680;9.166;2023-06-10T02:28:15;22.20;59.30
6752;DHT22;3413;47.680;9.166;2023-06-10T02:33:17;22.20;59.30
6752;DHT22;3413;47.680;9.166;2023-06-10T02:38:20;22.30;59.30
6752;DHT22;3413;47.680;9.166;2023-06-10T02:43:22;22.20;59.20
6752;DHT22;3413;47.680;9.166;2023-06-10T02:48:27;22.10;59.30
6752;DHT22;3413;47.680;9.166;2023-06-10T02:53:30;21.90;59.50
6752;DHT22;3413;47.680;9.166;2023-06-10T02:58:38;21.70;59.60
6752;DHT22;3413;47.680;9.166;2023-06-10T03:03:42;21.70;59.70
6752;DHT22;3413;47.680;9.166;2023-06-10T03:08:47;21.80;59.70
6752;DHT22;3413;47.680;9.166;2023-06-10T03:13:53;21.80;59.60
6752;DHT22;3413;47.680;9.166;2023-06-10T03:18:56;22.00;59.80
6752;DHT22;3413;47.680;9.166;2023-06-10T03:23:58;22.10;59.80
6752;DHT22;3413;47.680;9.166;2023-06-10T03:29:01;22.00;59.80
6752;DHT22;3413;47.680;9.166;2023-06-10T03:34:03;21.90;59.90
6752;DHT22;3413;47.680;9.166;2023-06-10T03:39:05;21.90;60.00
6752;DHT22;3413;47.680;9.166;2023-06-10T03:44:08;22.00;60.20
6752;DHT22;3413;47.680;9.166;2023-06-10T03:49:10;22.00;60.20
6752;DHT22;3413;47.680;9.166;2023-06-10T03:54:12;21.90;60.10
6752;DHT22;3413;47.680;9.166;2023-06-10T03:59:14;21.90;60.30
6752;DHT22;3413;47.680;9.166;2023-06-10T04:04:17;21.90;60.30
6752;DHT22;3413;47.680;9.166;2023-06-10T04:09:19;21.90;60.50
6752;DHT22;3413;47.680;9.166;2023-06-10T04:14:22;21.80;60.40
6752;DHT22;3413;47.680;9.166;2023-06-10T04:19:24;21.80;60.50
6752;DHT22;3413;47.680;9.166;2023-06-10T04:24:26;21.80;60.70
6752;DHT22;3413;47.680;9.166;2023-06-10T04:29:29;21.80;60.80
6752;DHT22;3413;47.680;9.166;2023-06-10T04:34:36;21.70;60.80
6752;DHT22;3413;47.680;9.166;2023-06-10T04:39:41;21.70;61.10
6752;DHT22;3413;47.680;9.166;2023-06-10T04:44:44;21.70;61.10
6752;DHT22;3413;47.680;9.166;2023-06-10T04:49:46;21.70;61.20
6752;DHT22;3413;47.680;9.166;2023-06-10T04:54:48;21.70;61.30
6752;DHT22;3413;47.680;9.166;2023-06-10T04:59:50;21.80;61.40
6752;DHT22;3413;47.680;9.166;2023-06-10T05:04:52;21.80;61.50
6752;DHT22;3413;47.680;9.166;2023-06-10T05:09:55;21.90;61.80
6752;DHT22;3413;47.680;9.166;2023-06-10T05:14:57;22.00;61.90
6752;DHT22;3413;47.680;9.166;2023-06-10T05:19:58;22.00;62.00
6752;DHT22;3413;47.680;9.166;2023-06-10T05:25:01;22.00;62.20
6752;DHT22;3413;47.680;9.166;2023-06-10T05:30:03;22.10;62.40
6752;DHT22;3413;47.680;9.166;2023-06-10T05:35:05;22.10;62.50
6752;DHT22;3413;47.680;9.166;2023-06-10T05:40:08;22.20;62.70
6752;DHT22;3413;47.680;9.166;2023-06-10T05:45:11;22.30;62.80
6752;DHT22;3413;47.680;9.166;2023-06-10T05:50:13;22.30;63.00
6752;DHT22;3413;47.680;9.166;2023-06-10T05:55:15;22.30;63.10
6752;DHT22;3413;47.680;9.166;2023-06-10T06:00:17;22.50;63.20
6752;DHT22;3413;47.680;9.166;2023-06-10T06:05:19;22.60;63.30
6752;DHT22;3413;47.680;9.166;2023-06-10T06:10:21;22.70;63.40
6752;DHT22;3413;47.680;9.166;2023-06-10T06:15:23;22.80;63.50
6752;DHT22;3413;47.680;9.166;2023-06-10T06:20:25;22.90;63.60
6752;DHT22;3413;47.680;9.166;2023-06-10T06:25:27;22.90;63.70
6752;DHT22;3413;47.680;9.166;2023-06-10T06:30:29;23.00;63.90
6752;DHT22;3413;47.680;9.166;2023-06-10T06:35:33;23.00;64.70
6752;DHT22;3413;47.680;9.166;2023-06-10T06:40:35;23.10;64.80
6752;DHT22;3413;47.680;9.166;2023-06-10T06:45:37;23.20;64.10
6752;DHT22;3413;47.680;9.166;2023-06-10T06:50:39;23.30;64.20
6752;DHT22;3413;47.680;9.166;2023-06-10T06:55:43;23.40;64.20
6752;DHT22;3413;47.680;9.166;2023-06-10T07:00:45;23.50;64.20
6752;DHT22;3413;47.680;9.166;2023-06-10T07:05:47;23.70;64.40
6752;DHT22;3413;47.680;9.166;2023-06-10T07:10:49;23.70;64.40
6752;DHT22;3413;47.680;9.166;2023-06-10T07:15:51;23.80;64.60
6752;DHT22;3413;47.680;9.166;2023-06-10T07:20:53;23.90;64.60
6752;DHT22;3413;47.680;9.166;2023-06-10T07:25:55;23.90;64.70
6752;DHT22;3413;47.680;9.166;2023-06-10T07:30:57;23.90;64.80
6752;DHT22;3413;47.680;9.166;2023-06-10T07:35:59;24.00;64.90
6752;DHT22;3413;47.680;9.166;2023-06-10T07:41:01;24.10;64.90
6752;DHT22;3413;47.680;9.166;2023-06-10T07:46:03;24.10;65.00
6752;DHT22;3413;47.680;9.166;2023-06-10T07:51:07;24.20;65.10
6752;DHT22;3413;47.680;9.166;2023-06-10T07:56:09;24.20;65.10
6752;DHT22;3413;47.680;9.166;2023-06-10T08:01:11;24.40;65.20
6752;DHT22;3413;47.680;9.166;2023-06-10T08:06:13;24.60;65.10
6752;DHT22;3413;47.680;9.166;2023-06-10T08:11:15;24.70;65.30
6752;DHT22;3413;47.680;9.166;2023-06-10T08:16:17;24.60;65.40
6752;DHT22;3413;47.680;9.166;2023-06-10T08:21:19;24.70;65.60
6752;DHT22;3413;47.680;9.166;2023-06-10T08:26:21;24.70;65.70
6752;DHT22;3413;47.680;9.166;2023-06-10T08:31:23;24.90;65.80
6752;DHT22;3413;47.680;9.166;2023-06-10T08:36:26;25.00;65.80
6752;DHT22;3413;47.680;9.166;2023-06-10T08:41:28;25.10;66.60
6752;DHT22;3413;47.680;9.166;2023-06-10T08:46:32;25.40;66.00
6752;DHT22;3413;47.680;9.166;2023-06-10T08:51:35;25.60;66.00
6752;DHT22;3413;47.680;9.166;2023-06-10T08:56:40;25.80;66.00
6752;DHT22;3413;47.680;9.166;2023-06-10T09:01:47;25.90;66.10
6752;DHT22;3413;47.680;9.166;2023-06-10T09:06:49;26.10;66.10
6752;DHT22;3413;47.680;9.166;2023-06-10T09:11:51;26.40;66.20
6752;DHT22;3413;47.680;9.166;2023-06-10T09:16:53;26.60;66.20
6752;DHT22;3413;47.680;9.166;2023-06-10T09:21:59;26.90;66.30
6752;DHT22;3413;47.680;9.166;2023-06-10T09:27:08;27.10;66.20
6752;DHT22;3413;47.680;9.166;2023-06-10T09:32:10;27.40;66.40
6752;DHT22;3413;47.680;9.166;2023-06-10T09:37:13;27.60;66.40
6752;DHT22;3413;47.680;9.166;2023-06-10T09:42:16;27.80;66.40
6752;DHT22;3413;47.680;9.166;2023-06-10T09:47:21;27.80;66.60
6752;DHT22;3413;47.680;9.166;2023-06-10T09:52:25;28.00;66.50
6752;DHT22;3413;47.680;9.166;2023-06-10T09:57:33;28.30;66.60
6752;DHT22;3413;47.680;9.166;2023-06-10T10:02:49;28.40;66.50
6752;DHT22;3413;47.680;9.166;2023-06-10T10:07:52;28.50;67.30
6752;DHT22;3413;47.680;9.166;2023-06-10T10:12:55;28.80;66.70
6752;DHT22;3413;47.680;9.166;2023-06-10T10:18:04;29.10;66.70
6752;DHT22;3413;47.680;9.166;2023-06-10T10:23:08;29.40;66.60
6752;DHT22;3413;47.680;9.166;2023-06-10T10:28:12;29.70;66.40
6752;DHT22;3413;47.680;9.166;2023-06-10T10:33:20;29.80;66.30
6752;DHT22;3413;47.680;9.166;2023-06-10T10:38:24;30.00;66.40
6752;DHT22;3413;47.680;9.166;2023-06-10T10:43:28;30.10;66.50
6752;DHT22;3413;47.680;9.166;2023-06-10T10:48:36;30.20;66.60
6752;DHT22;3413;47.680;9.166;2023-06-10T10:53:39;30.30;66.50
6752;DHT22;3413;47.680;9.166;2023-06-10T10:58:41;30.50;66.50
6752;DHT22;3413;47.680;9.166;2023-06-10T11:03:45;30.80;66.50
6752;DHT22;3413;47.680;9.166;2023-06-10T11:08:49;31.00;66.40
6752;DHT22;3413;47.680;9.166;2023-06-10T11:19:08;31.00;66.20
6752;DHT22;3413;47.680;9.166;2023-06-10T11:24:14;31.20;66.20
6752;DHT22;3413;47.680;9.166;2023-06-10T11:29:16;31.40;66.00
6752;DHT22;3413;47.680;9.166;2023-06-10T11:34:23;31.60;66.00
6752;DHT22;3413;47.680;9.166;2023-06-10T11:39:26;31.90;66.00
6752;DHT22;3413;47.680;9.166;2023-06-10T11:44:28;32.00;65.60
6752;DHT22;3413;47.680;9.166;2023-06-10T11:49:31;32.10;65.70
6752;DHT22;3413;47.680;9.166;2023-06-10T11:54:33;32.20;65.70
6752;DHT22;3413;47.680;9.166;2023-06-10T11:59:35;32.30;65.60
6752;DHT22;3413;47.680;9.166;2023-06-10T12:04:37;32.40;65.50
6752;DHT22;3413;47.680;9.166;2023-06-10T12:09:39;32.50;65.50
6752;DHT22;3413;47.680;9.166;2023-06-10T12:19:58;32.40;65.20
6752;DHT22;3413;47.680;9.166;2023-06-10T12:25:02;32.30;65.30
6752;DHT22;3413;47.680;9.166;2023-06-10T12:30:06;32.40;64.90
6752;DHT22;3413;47.680;9.166;2023-06-10T12:35:09;32.30;65.00
6752;DHT22;3413;47.680;9.166;2023-06-10T12:40:12;32.50;64.80
6752;DHT22;3413;47.680;9.166;2023-06-10T12:45:25;32.70;64.60
6752;DHT22;3413;47.680;9.166;2023-06-10T12:50:28;32.90;64.50
6752;DHT22;3413;47.680;9.166;2023-06-10T12:55:30;32.90;64.10
6752;DHT22;3413;47.680;9.166;2023-06-10T13:00:32;32.80;63.80
6752;DHT22;3413;47.680;9.166;2023-06-10T13:05:37;32.90;63.80
6752;DHT22;3413;47.680;9.166;2023-06-10T13:10:40;32.90;63.70
6752;DHT22;3413;47.680;9.166;2023-06-10T13:15:43;33.00;63.50
6752;DHT22;3413;47.680;9.166;2023-06-10T13:20:45;33.10;63.50
6752;DHT22;3413;47.680;9.166;2023-06-10T13:25:47;33.30;63.40
6752;DHT22;3413;47.680;9.166;2023-06-10T13:30:49;33.50;63.10
6752;DHT22;3413;47.680;9.166;2023-06-10T13:35:51;33.30;63.00
6752;DHT22;3413;47.680;9.166;2023-06-10T13:40:53;33.20;63.10
6752;DHT22;3413;47.680;9.166;2023-06-10T13:45:55;33.40;63.00
6752;DHT22;3413;47.680;9.166;2023-06-10T13:50:57;33.60;62.80
6752;DHT22;3413;47.680;9.166;2023-06-10T13:56:01;33.70;62.70
6752;DHT22;3413;47.680;9.166;2023-06-10T14:01:03;33.70;62.50
6752;DHT22;3413;47.680;9.166;2023-06-10T14:06:05;33.50;62.30
6752;DHT22;3413;47.680;9.166;2023-06-10T14:11:07;33.50;62.30
6752;DHT22;3413;47.680;9.166;2023-06-10T14:16:10;33.60;62.20
6752;DHT22;3413;47.680;9.166;2023-06-10T14:21:12;33.70;62.20
6752;DHT22;3413;47.680;9.166;2023-06-10T14:26:14;33.80;62.10
6752;DHT22;3413;47.680;9.166;2023-06-10T14:31:16;33.90;62.10
6752;DHT22;3413;47.680;9.166;2023-06-10T14:36:18;34.00;62.00
6752;DHT22;3413;47.680;9.166;2023-06-10T14:41:20;34.20;61.90
6752;DHT22;3413;47.680;9.166;2023-06-10T14:46:24;34.40;61.70
6752;DHT22;3413;47.680;9.166;2023-06-10T14:51:26;34.30;61.70
6752;DHT22;3413;47.680;9.166;2023-06-10T14:56:28;34.20;61.50
6752;DHT22;3413;47.680;9.166;2023-06-10T15:01:31;34.30;61.40
6752;DHT22;3413;47.680;9.166;2023-06-10T15:06:33;34.30;61.30
6752;DHT22;3413;47.680;9.166;2023-06-10T15:11:35;34.40;61.20
6752;DHT22;3413;47.680;9.166;2023-06-10T15:16:37;34.50;61.00
6752;DHT22;3413;47.680;9.166;2023-06-10T15:21:39;34.60;61.00
6752;DHT22;3413;47.680;9.166;2023-06-10T15:26:41;34.60;60.90
6752;DHT22;3413;47.680;9.166;2023-06-10T15:31:43;34.50;60.80
6752;DHT22;3413;47.680;9.166;2023-06-10T15:36:45;34.40;60.60
6752;DHT22;3413;47.680;9.166;2023-06-10T15:41:47;34.40;60.60
6752;DHT22;3413;47.680;9.166;2023-06-10T15:46:49;34.30;60.50
6752;DHT22;3413;47.680;9.166;2023-06-10T15:51:52;34.30;60.50
6752;DHT22;3413;47.680;9.166;2023-06-10T15:56:53;34.30;60.40
6752;DHT22;3413;47.680;9.166;2023-06-10T16:01:56;34.40;61.10
6752;DHT22;3413;47.680;9.166;2023-06-10T16:06:58;34.40;60.30
6752;DHT22;3413;47.680;9.166;2023-06-10T16:11:59;34.30;60.30
6752;DHT22;3413;47.680;9.166;2023-06-10T16:17:01;34.30;60.30
6752;DHT22;3413;47.680;9.166;2023-06-10T16:22:04;34.30;60.30
6752;DHT22;3413;47.680;9.166;2023-06-10T16:27:06;34.20;60.10
6752;DHT22;3413;47.680;9.166;2023-06-10T16:32:11;34.20;60.20
6752;DHT22;3413;47.680;9.166;2023-06-10T16:37:14;34.10;60.00
6752;DHT22;3413;47.680;9.166;2023-06-10T16:42:15;34.00;60.10
6752;DHT22;3413;47.680;9.166;2023-06-10T16:47:17;33.90;60.00
6752;DHT22;3413;47.680;9.166;2023-06-10T16:52:20;33.90;60.00
6752;DHT22;3413;47.680;9.166;2023-06-10T16:57:22;33.80;60.00
6752;DHT22;3413;47.680;9.166;2023-06-10T17:02:23;33.80;59.90
6752;DHT22;3413;47.680;9.166;2023-06-10T17:07:27;33.80;59.80
6752;DHT22;3413;47.680;9.166;2023-06-10T17:12:30;33.60;59.70
6752;DHT22;3413;47.680;9.166;2023-06-10T17:17:32;33.50;59.70
6752;DHT22;3413;47.680;9.166;2023-06-10T17:22:35;33.30;60.40
6752;DHT22;3413;47.680;9.166;2023-06-10T17:27:37;33.20;59.60
6752;DHT22;3413;47.680;9.166;2023-06-10T17:32:39;33.00;59.60
6752;DHT22;3413;47.680;9.166;2023-06-10T17:37:42;32.80;59.50
6752;DHT22;3413;47.680;9.166;2023-06-10T17:42:44;32.70;60.00
6752;DHT22;3413;47.680;9.166;2023-06-10T17:47:46;32.60;59.40
6752;DHT22;3413;47.680;9.166;2023-06-10T17:52:48;32.50;59.40
6752;DHT22;3413;47.680;9.166;2023-06-10T17:57:50;32.20;59.40
6752;DHT22;3413;47.680;9.166;2023-06-10T18:02:52;32.10;59.40
6752;DHT22;3413;47.680;9.166;2023-06-10T18:07:55;32.00;59.40
6752;DHT22;3413;47.680;9.166;2023-06-10T18:12:57;31.80;59.40
6752;DHT22;3413;47.680;9.166;2023-06-10T18:17:59;31.80;59.30
6752;DHT22;3413;47.680;9.166;2023-06-10T18:23:01;31.70;59.30
6752;DHT22;3413;47.680;9.166;2023-06-10T18:28:03;31.50;59.90
6752;DHT22;3413;47.680;9.166;2023-06-10T18:33:05;31.40;59.40
6752;DHT22;3413;47.680;9.166;2023-06-10T18:38:07;31.20;59.30
6752;DHT22;3413;47.680;9.166;2023-06-10T18:43:09;31.10;59.40
6752;DHT22;3413;47.680;9.166;2023-06-10T18:48:12;31.00;59.40
6752;DHT22;3413;47.680;9.166;2023-06-10T18:53:14;30.90;59.40
6752;DHT22;3413;47.680;9.166;2023-06-10T18:58:16;30.80;59.30
6752;DHT22;3413;47.680;9.166;2023-06-10T19:03:18;30.50;59.40
6752;DHT22;3413;47.680;9.166;2023-06-10T19:08:20;30.40;59.50
6752;DHT22;3413;47.680;9.166;2023-06-10T19:13:23;30.30;59.50
6752;DHT22;3413;47.680;9.166;2023-06-10T19:18:26;30.10;59.50
6752;DHT22;3413;47.680;9.166;2023-06-10T19:23:28;30.10;59.50
6752;DHT22;3413;47.680;9.166;2023-06-10T19:28:30;29.90;59.60
6752;DHT22;3413;47.680;9.166;2023-06-10T19:33:32;29.70;59.70
6752;DHT22;3413;47.680;9.166;2023-06-10T19:38:34;29.50;59.70
6752;DHT22;3413;47.680;9.166;2023-06-10T19:43:37;29.50;59.80
6752;DHT22;3413;47.680;9.166;2023-06-10T19:48:39;29.30;59.70
6752;DHT22;3413;47.680;9.166;2023-06-10T19:53:41;29.20;59.80
6752;DHT22;3413;47.680;9.166;2023-06-10T19:58:43;29.10;59.70
6752;DHT22;3413;47.680;9.166;2023-06-10T20:03:45;29.00;59.80
6752;DHT22;3413;47.680;9.166;2023-06-10T20:08:47;28.80;59.80
6752;DHT22;3413;47.680;9.166;2023-06-10T20:13:49;28.70;59.80
6752;DHT22;3413;47.680;9.166;2023-06-10T20:18:51;28.60;59.80
6752;DHT22;3413;47.680;9.166;2023-06-10T20:23:53;28.60;59.90
6752;DHT22;3413;47.680;9.166;2023-06-10T20:28:55;28.40;59.90
6752;DHT22;3413;47.680;9.166;2023-06-10T20:33:57;28.20;60.00
6752;DHT22;3413;47.680;9.166;2023-06-10T20:38:59;28.10;60.00
6752;DHT22;3413;47.680;9.166;2023-06-10T20:44:01;28.00;60.10
6752;DHT22;3413;47.680;9.166;2023-06-10T20:49:03;27.90;60.20
6752;DHT22;3413;47.680;9.166;2023-06-10T20:54:05;27.80;60.20
6752;DHT22;3413;47.680;9.166;2023-06-10T20:59:07;27.70;60.30
6752;DHT22;3413;47.680;9.166;2023-06-10T21:04:09;27.70;60.40
6752;DHT22;3413;47.680;9.166;2023-06-10T21:09:11;27.60;60.50
6752;DHT22;3413;47.680;9.166;2023-06-10T21:14:13;27.20;60.80
6752;DHT22;3413;47.680;9.166;2023-06-10T21:19:15;27.00;61.00
6752;DHT22;3413;47.680;9.166;2023-06-10T21:24:17;26.80;61.10
6752;DHT22;3413;47.680;9.166;2023-06-10T21:29:19;26.80;61.20
6752;DHT22;3413;47.680;9.166;2023-06-10T21:34:21;26.80;61.10
6752;DHT22;3413;47.680;9.166;2023-06-10T21:39:23;26.70;61.10
6752;DHT22;3413;47.680;9.166;2023-06-10T21:44:25;26.60;61.30
6752;DHT22;3413;47.680;9.166;2023-06-10T21:49:27;26.60;61.30
6752;DHT22;3413;47.680;9.166;2023-06-10T21:54:29;26.50;61.50
6752;DHT22;3413;47.680;9.166;2023-06-10T21:59:31;26.30;61.50
6752;DHT22;3413;47.680;9.166;2023-06-10T22:04:35;26.30;61.60
6752;DHT22;3413;47.680;9.166;2023-06-10T22:09:40;26.10;61.70
6752;DHT22;3413;47.680;9.166;2023-06-10T22:14:47;26.00;61.80
6752;DHT22;3413;47.680;9.166;2023-06-10T22:19:49;26.00;61.80
6752;DHT22;3413;47.680;9.166;2023-06-10T22:24:56;25.90;62.00
6752;DHT22;3413;47.680;9.166;2023-06-10T22:29:58;25.80;62.10
6752;DHT22;3413;47.680;9.166;2023-06-10T22:35:00;25.70;62.10
6752;DHT22;3413;47.680;9.166;2023-06-10T22:40:03;25.70;62.20
6752;DHT22;3413;47.680;9.166;2023-06-10T22:45:05;25.60;62.40
6752;DHT22;3413;47.680;9.166;2023-06-10T22:50:09;25.50;62.40
6752;DHT22;3413;47.680;9.166;2023-06-10T22:55:11;25.50;62.40
6752;DHT22;3413;47.680;9.166;2023-06-10T23:00:14;25.50;62.40
6752;DHT22;3413;47.680;9.166;2023-06-10T23:05:16;25.60;62.40
6752;DHT22;3413;47.680;9.166;2023-06-10T23:10:18;25.70;62.40
6752;DHT22;3413;47.680;9.166;2023-06-10T23:15:20;25.80;62.50
6752;DHT22;3413;47.680;9.166;2023-06-10T23:20:22;25.80;62.50
6752;DHT22;3413;47.680;9.166;2023-06-10T23:25:24;25.70;62.60
6752;DHT22;3413;47.680;9.166;2023-06-10T23:30:27;25.70;62.80
6752;DHT22;3413;47.680;9.166;2023-06-10T23:35:29;25.40;63.00
6752;DHT22;3413;47.680;9.166;2023-06-10T23:40:31;25.30;63.20
6752;DHT22;3413;47.680;9.166;2023-06-10T23:45:33;25.20;63.10
6752;DHT22;3413;47.680;9.166;2023-06-10T23:50:35;25.10;63.20
6752;DHT22;3413;47.680;9.166;2023-06-10T23:55:38;25.00;63.40
